sensor_id;sensor_type;location;lat;lon;timestamp;P1;durP1;ratioP1;P2;durP2;ratioP2
71207;SDS011;58938;49.868;8.646;2024-03-07T00:00:09;39.35;;;18.50;;
71207;SDS011;58938;49.868;8.646;2024-03-07T00:02:51;37.17;;;17.02;;
71207;SDS011;58938;49.868;8.646;2024-03-07T00:05:19;35.13;;;16.33;;
71207;SDS011;58938;49.868;8.646;2024-03-07T00:07:47;39.03;;;17.10;;
71207;SDS011;58938;49.868;8.646;2024-03-07T00:10:13;36.80;;;16.83;;
71207;SDS011;58938;49.868;8.646;2024-03-07T00:12:40;37.85;;;17.67;;
71207;SDS011;58938;49.868;8.646;2024-03-07T00:15:06;35.17;;;17.08;;
71207;SDS011;58938;49.868;8.646;2024-03-07T00:17:33;38.42;;;17.60;;
71207;SDS011;58938;49.868;8.646;2024-03-07T00:19:59;38.47;;;17.37;;
71207;SDS011;58938;49.868;8.646;2024-03-07T00:22:25;38.38;;;17.17;;
71207;SDS011;58938;49.868;8.646;2024-03-07T00:24:54;38.00;;;17.02;;
71207;SDS011;58938;49.868;8.646;2024-03-07T00:27:20;35.63;;;16.88;;
71207;SDS011;58938;49.868;8.646;2024-03-07T00:29:47;37.33;;;17.83;;
71207;SDS011;58938;49.868;8.646;2024-03-07T00:32:18;38.73;;;18.07;;
71207;SDS011;58938;49.868;8.646;2024-03-07T00:34:44;43.53;;;19.27;;
71207;SDS011;58938;49.868;8.646;2024-03-07T00:37:10;36.75;;;17.25;;
71207;SDS011;58938;49.868;8.646;2024-03-07T00:39:36;38.47;;;17.85;;
71207;SDS011;58938;49.868;8.646;2024-03-07T00:42:02;38.13;;;18.43;;
71207;SDS011;58938;49.868;8.646;2024-03-07T00:44:28;39.42;;;18.40;;
71207;SDS011;58938;49.868;8.646;2024-03-07T00:46:54;37.58;;;16.60;;
71207;SDS011;58938;49.868;8.646;2024-03-07T00:49:20;38.73;;;17.73;;
71207;SDS011;58938;49.868;8.646;2024-03-07T00:51:46;35.28;;;16.17;;
71207;SDS011;58938;49.868;8.646;2024-03-07T00:54:12;40.65;;;18.25;;
71207;SDS011;58938;49.868;8.646;2024-03-07T00:56:38;38.47;;;16.30;;
71207;SDS011;58938;49.868;8.646;2024-03-07T00:59:04;39.60;;;18.38;;
71207;SDS011;58938;49.868;8.646;2024-03-07T01:01:31;38.90;;;16.70;;
71207;SDS011;58938;49.868;8.646;2024-03-07T01:03:58;36.28;;;18.42;;
71207;SDS011;58938;49.868;8.646;2024-03-07T01:06:25;36.83;;;17.67;;
71207;SDS011;58938;49.868;8.646;2024-03-07T01:08:51;37.45;;;17.38;;
71207;SDS011;58938;49.868;8.646;2024-03-07T01:11:17;34.30;;;16.17;;
71207;SDS011;58938;49.868;8.646;2024-03-07T01:13:43;39.33;;;17.75;;
71207;SDS011;58938;49.868;8.646;2024-03-07T01:16:09;37.80;;;17.50;;
71207;SDS011;58938;49.868;8.646;2024-03-07T01:18:37;35.55;;;17.02;;
71207;SDS011;58938;49.868;8.646;2024-03-07T01:21:03;34.60;;;16.02;;
71207;SDS011;58938;49.868;8.646;2024-03-07T01:23:31;34.37;;;15.77;;
71207;SDS011;58938;49.868;8.646;2024-03-07T01:25:57;39.65;;;17.35;;
71207;SDS011;58938;49.868;8.646;2024-03-07T01:28:24;39.58;;;18.88;;
71207;SDS011;58938;49.868;8.646;2024-03-07T01:30:50;37.85;;;16.52;;
71207;SDS011;58938;49.868;8.646;2024-03-07T01:33:17;36.00;;;16.40;;
71207;SDS011;58938;49.868;8.646;2024-03-07T01:35:44;39.07;;;18.73;;
71207;SDS011;58938;49.868;8.646;2024-03-07T01:38:10;35.30;;;16.10;;
71207;SDS011;58938;49.868;8.646;2024-03-07T01:40:38;36.45;;;16.67;;
71207;SDS011;58938;49.868;8.646;2024-03-07T01:43:04;36.25;;;17.83;;
71207;SDS011;58938;49.868;8.646;2024-03-07T01:45:31;36.33;;;17.50;;
71207;SDS011;58938;49.868;8.646;2024-03-07T01:47:57;35.60;;;16.17;;
71207;SDS011;58938;49.868;8.646;2024-03-07T01:50:23;36.88;;;16.17;;
71207;SDS011;58938;49.868;8.646;2024-03-07T01:52:49;35.00;;;17.35;;
71207;SDS011;58938;49.868;8.646;2024-03-07T01:55:20;36.15;;;17.15;;
71207;SDS011;58938;49.868;8.646;2024-03-07T01:57:47;36.00;;;17.25;;
71207;SDS011;58938;49.868;8.646;2024-03-07T02:00:13;39.73;;;17.37;;
71207;SDS011;58938;49.868;8.646;2024-03-07T02:02:39;34.90;;;17.08;;
71207;SDS011;58938;49.868;8.646;2024-03-07T02:05:05;36.03;;;15.88;;
71207;SDS011;58938;49.868;8.646;2024-03-07T02:07:31;39.33;;;17.38;;
71207;SDS011;58938;49.868;8.646;2024-03-07T02:10:01;37.10;;;18.30;;
71207;SDS011;58938;49.868;8.646;2024-03-07T02:12:28;39.90;;;17.77;;
71207;SDS011;58938;49.868;8.646;2024-03-07T02:14:54;38.03;;;16.42;;
71207;SDS011;58938;49.868;8.646;2024-03-07T02:17:22;37.47;;;16.77;;
71207;SDS011;58938;49.868;8.646;2024-03-07T02:19:48;42.30;;;17.83;;
71207;SDS011;58938;49.868;8.646;2024-03-07T02:22:14;35.20;;;16.20;;
71207;SDS011;58938;49.868;8.646;2024-03-07T02:24:39;40.13;;;17.50;;
71207;SDS011;58938;49.868;8.646;2024-03-07T02:27:06;36.25;;;16.15;;
71207;SDS011;58938;49.868;8.646;2024-03-07T02:29:33;40.47;;;18.55;;
71207;SDS011;58938;49.868;8.646;2024-03-07T02:32:00;35.15;;;16.63;;
71207;SDS011;58938;49.868;8.646;2024-03-07T02:34:26;35.87;;;16.17;;
71207;SDS011;58938;49.868;8.646;2024-03-07T02:36:52;33.75;;;16.00;;
71207;SDS011;58938;49.868;8.646;2024-03-07T02:39:18;38.13;;;16.60;;
71207;SDS011;58938;49.868;8.646;2024-03-07T02:41:45;36.20;;;17.10;;
71207;SDS011;58938;49.868;8.646;2024-03-07T02:44:12;36.97;;;17.27;;
71207;SDS011;58938;49.868;8.646;2024-03-07T02:46:39;36.47;;;17.20;;
71207;SDS011;58938;49.868;8.646;2024-03-07T02:49:05;36.08;;;16.63;;
71207;SDS011;58938;49.868;8.646;2024-03-07T02:51:31;34.30;;;16.67;;
71207;SDS011;58938;49.868;8.646;2024-03-07T02:53:57;38.38;;;16.52;;
71207;SDS011;58938;49.868;8.646;2024-03-07T02:56:24;37.60;;;15.53;;
71207;SDS011;58938;49.868;8.646;2024-03-07T02:58:50;34.33;;;16.25;;
71207;SDS011;58938;49.868;8.646;2024-03-07T03:01:16;37.33;;;17.10;;
71207;SDS011;58938;49.868;8.646;2024-03-07T03:03:42;34.63;;;15.73;;
71207;SDS011;58938;49.868;8.646;2024-03-07T03:06:08;33.90;;;15.95;;
71207;SDS011;58938;49.868;8.646;2024-03-07T03:08:34;36.83;;;16.90;;
71207;SDS011;58938;49.868;8.646;2024-03-07T03:11:01;36.08;;;15.50;;
71207;SDS011;58938;49.868;8.646;2024-03-07T03:13:27;33.45;;;16.70;;
71207;SDS011;58938;49.868;8.646;2024-03-07T03:15:56;35.13;;;15.75;;
71207;SDS011;58938;49.868;8.646;2024-03-07T03:18:22;38.95;;;17.00;;
71207;SDS011;58938;49.868;8.646;2024-03-07T03:20:48;39.83;;;17.33;;
71207;SDS011;58938;49.868;8.646;2024-03-07T03:23:14;38.35;;;17.42;;
71207;SDS011;58938;49.868;8.646;2024-03-07T03:25:40;35.00;;;17.27;;
71207;SDS011;58938;49.868;8.646;2024-03-07T03:28:07;34.00;;;15.52;;
71207;SDS011;58938;49.868;8.646;2024-03-07T03:30:39;36.17;;;15.83;;
71207;SDS011;58938;49.868;8.646;2024-03-07T03:33:06;34.35;;;14.82;;
71207;SDS011;58938;49.868;8.646;2024-03-07T03:35:32;37.83;;;15.65;;
71207;SDS011;58938;49.868;8.646;2024-03-07T03:37:58;35.75;;;15.85;;
71207;SDS011;58938;49.868;8.646;2024-03-07T03:40:24;34.60;;;16.45;;
71207;SDS011;58938;49.868;8.646;2024-03-07T03:42:50;34.53;;;15.80;;
71207;SDS011;58938;49.868;8.646;2024-03-07T03:45:17;33.60;;;15.45;;
71207;SDS011;58938;49.868;8.646;2024-03-07T03:47:43;37.75;;;15.43;;
71207;SDS011;58938;49.868;8.646;2024-03-07T03:50:10;33.42;;;16.02;;
71207;SDS011;58938;49.868;8.646;2024-03-07T03:52:36;35.67;;;16.58;;
71207;SDS011;58938;49.868;8.646;2024-03-07T03:55:03;34.87;;;14.73;;
71207;SDS011;58938;49.868;8.646;2024-03-07T03:57:40;30.60;;;15.30;;
71207;SDS011;58938;49.868;8.646;2024-03-07T04:00:07;32.63;;;15.60;;
71207;SDS011;58938;49.868;8.646;2024-03-07T04:02:43;32.70;;;15.05;;
71207;SDS011;58938;49.868;8.646;2024-03-07T04:05:09;32.75;;;14.68;;
71207;SDS011;58938;49.868;8.646;2024-03-07T04:07:36;35.73;;;16.40;;
71207;SDS011;58938;49.868;8.646;2024-03-07T04:10:02;32.75;;;15.32;;
71207;SDS011;58938;49.868;8.646;2024-03-07T04:12:29;31.52;;;15.88;;
71207;SDS011;58938;49.868;8.646;2024-03-07T04:14:55;36.17;;;15.90;;
71207;SDS011;58938;49.868;8.646;2024-03-07T04:17:21;34.22;;;16.05;;
71207;SDS011;58938;49.868;8.646;2024-03-07T04:19:47;35.03;;;14.70;;
71207;SDS011;58938;49.868;8.646;2024-03-07T04:22:13;38.70;;;16.20;;
71207;SDS011;58938;49.868;8.646;2024-03-07T04:24:39;37.38;;;16.17;;
71207;SDS011;58938;49.868;8.646;2024-03-07T04:27:06;35.35;;;16.65;;
71207;SDS011;58938;49.868;8.646;2024-03-07T04:29:35;37.40;;;17.00;;
71207;SDS011;58938;49.868;8.646;2024-03-07T04:32:02;34.73;;;15.93;;
71207;SDS011;58938;49.868;8.646;2024-03-07T04:34:31;37.50;;;16.92;;
71207;SDS011;58938;49.868;8.646;2024-03-07T04:36:57;35.33;;;15.80;;
71207;SDS011;58938;49.868;8.646;2024-03-07T04:39:26;34.63;;;17.05;;
71207;SDS011;58938;49.868;8.646;2024-03-07T04:42:04;36.97;;;15.87;;
71207;SDS011;58938;49.868;8.646;2024-03-07T04:44:34;38.55;;;16.65;;
71207;SDS011;58938;49.868;8.646;2024-03-07T04:47:04;37.42;;;15.65;;
71207;SDS011;58938;49.868;8.646;2024-03-07T04:49:30;36.97;;;16.70;;
71207;SDS011;58938;49.868;8.646;2024-03-07T04:51:57;40.50;;;16.42;;
71207;SDS011;58938;49.868;8.646;2024-03-07T04:54:24;33.40;;;15.03;;
71207;SDS011;58938;49.868;8.646;2024-03-07T04:56:50;34.67;;;15.82;;
71207;SDS011;58938;49.868;8.646;2024-03-07T04:59:17;33.72;;;17.17;;
71207;SDS011;58938;49.868;8.646;2024-03-07T05:01:44;38.28;;;17.02;;
71207;SDS011;58938;49.868;8.646;2024-03-07T05:04:11;40.95;;;16.55;;
71207;SDS011;58938;49.868;8.646;2024-03-07T05:06:38;35.80;;;15.90;;
71207;SDS011;58938;49.868;8.646;2024-03-07T05:09:05;33.10;;;15.68;;
71207;SDS011;58938;49.868;8.646;2024-03-07T05:11:35;37.90;;;17.27;;
71207;SDS011;58938;49.868;8.646;2024-03-07T05:14:01;36.10;;;16.67;;
71207;SDS011;58938;49.868;8.646;2024-03-07T05:16:27;36.17;;;17.25;;
71207;SDS011;58938;49.868;8.646;2024-03-07T05:18:54;36.13;;;16.30;;
71207;SDS011;58938;49.868;8.646;2024-03-07T05:21:24;36.75;;;16.67;;
71207;SDS011;58938;49.868;8.646;2024-03-07T05:24:03;37.95;;;16.45;;
71207;SDS011;58938;49.868;8.646;2024-03-07T05:26:30;42.63;;;17.17;;
71207;SDS011;58938;49.868;8.646;2024-03-07T05:28:59;37.25;;;16.83;;
71207;SDS011;58938;49.868;8.646;2024-03-07T05:31:28;40.70;;;17.20;;
71207;SDS011;58938;49.868;8.646;2024-03-07T05:33:54;39.42;;;17.25;;
71207;SDS011;58938;49.868;8.646;2024-03-07T05:36:20;38.22;;;17.40;;
71207;SDS011;58938;49.868;8.646;2024-03-07T05:38:46;37.92;;;17.05;;
71207;SDS011;58938;49.868;8.646;2024-03-07T05:41:12;44.97;;;18.70;;
71207;SDS011;58938;49.868;8.646;2024-03-07T05:43:39;40.95;;;17.00;;
71207;SDS011;58938;49.868;8.646;2024-03-07T05:46:05;38.72;;;17.25;;
71207;SDS011;58938;49.868;8.646;2024-03-07T05:48:32;35.28;;;16.92;;
71207;SDS011;58938;49.868;8.646;2024-03-07T05:50:58;33.22;;;15.32;;
71207;SDS011;58938;49.868;8.646;2024-03-07T05:53:24;35.87;;;15.70;;
71207;SDS011;58938;49.868;8.646;2024-03-07T05:55:50;32.38;;;15.70;;
71207;SDS011;58938;49.868;8.646;2024-03-07T05:58:16;39.97;;;16.67;;
71207;SDS011;58938;49.868;8.646;2024-03-07T06:00:45;36.50;;;15.90;;
71207;SDS011;58938;49.868;8.646;2024-03-07T06:03:15;34.50;;;15.52;;
71207;SDS011;58938;49.868;8.646;2024-03-07T06:05:42;37.33;;;15.77;;
71207;SDS011;58938;49.868;8.646;2024-03-07T06:08:08;39.83;;;15.48;;
71207;SDS011;58938;49.868;8.646;2024-03-07T06:10:34;33.67;;;15.35;;
71207;SDS011;58938;49.868;8.646;2024-03-07T06:13:00;34.28;;;16.10;;
71207;SDS011;58938;49.868;8.646;2024-03-07T06:15:26;33.00;;;15.82;;
71207;SDS011;58938;49.868;8.646;2024-03-07T06:17:52;34.07;;;15.37;;
71207;SDS011;58938;49.868;8.646;2024-03-07T06:20:18;33.20;;;15.65;;
71207;SDS011;58938;49.868;8.646;2024-03-07T06:22:48;31.60;;;15.55;;
71207;SDS011;58938;49.868;8.646;2024-03-07T06:25:17;37.00;;;15.90;;
71207;SDS011;58938;49.868;8.646;2024-03-07T06:27:48;34.10;;;15.52;;
71207;SDS011;58938;49.868;8.646;2024-03-07T06:30:17;35.10;;;15.87;;
71207;SDS011;58938;49.868;8.646;2024-03-07T06:32:44;39.22;;;15.52;;
71207;SDS011;58938;49.868;8.646;2024-03-07T06:35:10;39.10;;;17.13;;
71207;SDS011;58938;49.868;8.646;2024-03-07T06:37:36;35.97;;;16.05;;
71207;SDS011;58938;49.868;8.646;2024-03-07T06:40:02;39.90;;;16.30;;
71207;SDS011;58938;49.868;8.646;2024-03-07T06:42:34;41.42;;;15.98;;
71207;SDS011;58938;49.868;8.646;2024-03-07T06:45:02;36.85;;;16.30;;
71207;SDS011;58938;49.868;8.646;2024-03-07T06:47:28;33.50;;;15.35;;
71207;SDS011;58938;49.868;8.646;2024-03-07T06:49:54;33.78;;;16.58;;
71207;SDS011;58938;49.868;8.646;2024-03-07T06:52:21;36.73;;;15.53;;
71207;SDS011;58938;49.868;8.646;2024-03-07T06:54:47;37.60;;;16.38;;
71207;SDS011;58938;49.868;8.646;2024-03-07T06:57:13;36.45;;;15.93;;
71207;SDS011;58938;49.868;8.646;2024-03-07T06:59:39;34.30;;;16.05;;
71207;SDS011;58938;49.868;8.646;2024-03-07T07:02:05;32.83;;;14.50;;
71207;SDS011;58938;49.868;8.646;2024-03-07T07:04:33;34.42;;;15.60;;
71207;SDS011;58938;49.868;8.646;2024-03-07T07:07:09;30.40;;;14.65;;
71207;SDS011;58938;49.868;8.646;2024-03-07T07:09:37;34.67;;;15.00;;
71207;SDS011;58938;49.868;8.646;2024-03-07T07:12:03;34.63;;;16.23;;
71207;SDS011;58938;49.868;8.646;2024-03-07T07:14:30;41.30;;;16.10;;
71207;SDS011;58938;49.868;8.646;2024-03-07T07:16:56;40.47;;;15.52;;
71207;SDS011;58938;49.868;8.646;2024-03-07T07:19:23;35.78;;;15.82;;
71207;SDS011;58938;49.868;8.646;2024-03-07T07:21:49;32.85;;;14.60;;
71207;SDS011;58938;49.868;8.646;2024-03-07T07:24:18;29.93;;;14.33;;
71207;SDS011;58938;49.868;8.646;2024-03-07T07:26:46;32.10;;;14.32;;
71207;SDS011;58938;49.868;8.646;2024-03-07T07:29:12;31.05;;;14.48;;
71207;SDS011;58938;49.868;8.646;2024-03-07T07:31:38;31.40;;;14.23;;
71207;SDS011;58938;49.868;8.646;2024-03-07T07:34:04;31.97;;;14.83;;
71207;SDS011;58938;49.868;8.646;2024-03-07T07:36:31;37.85;;;15.10;;
71207;SDS011;58938;49.868;8.646;2024-03-07T07:38:57;33.42;;;15.30;;
71207;SDS011;58938;49.868;8.646;2024-03-07T07:41:23;33.63;;;15.23;;
71207;SDS011;58938;49.868;8.646;2024-03-07T07:43:49;35.72;;;15.38;;
71207;SDS011;58938;49.868;8.646;2024-03-07T07:46:16;27.73;;;13.17;;
71207;SDS011;58938;49.868;8.646;2024-03-07T07:48:42;30.83;;;14.30;;
71207;SDS011;58938;49.868;8.646;2024-03-07T07:51:08;30.45;;;14.90;;
71207;SDS011;58938;49.868;8.646;2024-03-07T07:53:35;30.25;;;13.98;;
71207;SDS011;58938;49.868;8.646;2024-03-07T07:56:01;31.53;;;13.23;;
71207;SDS011;58938;49.868;8.646;2024-03-07T07:58:27;27.70;;;13.85;;
71207;SDS011;58938;49.868;8.646;2024-03-07T08:00:53;31.17;;;13.32;;
71207;SDS011;58938;49.868;8.646;2024-03-07T08:03:19;29.42;;;14.27;;
71207;SDS011;58938;49.868;8.646;2024-03-07T08:05:47;25.75;;;13.23;;
71207;SDS011;58938;49.868;8.646;2024-03-07T08:08:13;30.90;;;13.97;;
71207;SDS011;58938;49.868;8.646;2024-03-07T08:10:41;25.25;;;12.80;;
71207;SDS011;58938;49.868;8.646;2024-03-07T08:13:10;25.30;;;12.75;;
71207;SDS011;58938;49.868;8.646;2024-03-07T08:15:38;25.67;;;11.90;;
71207;SDS011;58938;49.868;8.646;2024-03-07T08:18:04;26.07;;;12.17;;
71207;SDS011;58938;49.868;8.646;2024-03-07T08:20:36;27.20;;;12.77;;
71207;SDS011;58938;49.868;8.646;2024-03-07T08:23:03;30.33;;;14.00;;
71207;SDS011;58938;49.868;8.646;2024-03-07T08:25:29;26.58;;;11.95;;
71207;SDS011;58938;49.868;8.646;2024-03-07T08:27:56;24.97;;;11.77;;
71207;SDS011;58938;49.868;8.646;2024-03-07T08:30:23;24.08;;;11.98;;
71207;SDS011;58938;49.868;8.646;2024-03-07T08:32:52;25.70;;;11.77;;
71207;SDS011;58938;49.868;8.646;2024-03-07T08:35:19;23.65;;;12.50;;
71207;SDS011;58938;49.868;8.646;2024-03-07T08:37:46;28.42;;;12.75;;
71207;SDS011;58938;49.868;8.646;2024-03-07T08:40:17;27.37;;;11.83;;
71207;SDS011;58938;49.868;8.646;2024-03-07T08:42:47;27.40;;;12.50;;
71207;SDS011;58938;49.868;8.646;2024-03-07T08:45:15;26.90;;;12.18;;
71207;SDS011;58938;49.868;8.646;2024-03-07T08:47:45;25.30;;;11.10;;
71207;SDS011;58938;49.868;8.646;2024-03-07T08:50:11;24.65;;;11.88;;
71207;SDS011;58938;49.868;8.646;2024-03-07T08:52:38;22.40;;;11.13;;
71207;SDS011;58938;49.868;8.646;2024-03-07T08:55:05;20.58;;;9.82;;
71207;SDS011;58938;49.868;8.646;2024-03-07T08:57:31;26.75;;;12.50;;
71207;SDS011;58938;49.868;8.646;2024-03-07T08:59:57;24.02;;;10.52;;
71207;SDS011;58938;49.868;8.646;2024-03-07T09:02:23;22.00;;;10.87;;
71207;SDS011;58938;49.868;8.646;2024-03-07T09:04:50;24.75;;;12.75;;
71207;SDS011;58938;49.868;8.646;2024-03-07T09:07:16;24.23;;;12.32;;
71207;SDS011;58938;49.868;8.646;2024-03-07T09:09:42;23.00;;;11.45;;
71207;SDS011;58938;49.868;8.646;2024-03-07T09:12:10;23.40;;;11.80;;
71207;SDS011;58938;49.868;8.646;2024-03-07T09:14:36;21.30;;;11.03;;
71207;SDS011;58938;49.868;8.646;2024-03-07T09:17:02;23.55;;;11.80;;
71207;SDS011;58938;49.868;8.646;2024-03-07T09:19:29;23.65;;;11.68;;
71207;SDS011;58938;49.868;8.646;2024-03-07T09:21:55;24.25;;;11.43;;
71207;SDS011;58938;49.868;8.646;2024-03-07T09:24:21;20.63;;;10.67;;
71207;SDS011;58938;49.868;8.646;2024-03-07T09:26:50;20.90;;;10.10;;
71207;SDS011;58938;49.868;8.646;2024-03-07T09:29:17;23.25;;;12.00;;
71207;SDS011;58938;49.868;8.646;2024-03-07T09:31:46;24.55;;;11.15;;
71207;SDS011;58938;49.868;8.646;2024-03-07T09:34:17;21.27;;;11.35;;
71207;SDS011;58938;49.868;8.646;2024-03-07T09:36:43;21.07;;;10.63;;
71207;SDS011;58938;49.868;8.646;2024-03-07T09:39:11;19.23;;;9.95;;
71207;SDS011;58938;49.868;8.646;2024-03-07T09:41:37;23.30;;;11.90;;
71207;SDS011;58938;49.868;8.646;2024-03-07T09:44:04;25.08;;;11.30;;
71207;SDS011;58938;49.868;8.646;2024-03-07T09:46:30;24.13;;;11.68;;
71207;SDS011;58938;49.868;8.646;2024-03-07T09:48:57;22.23;;;10.40;;
71207;SDS011;58938;49.868;8.646;2024-03-07T09:51:23;24.45;;;12.18;;
71207;SDS011;58938;49.868;8.646;2024-03-07T09:53:50;25.35;;;12.38;;
71207;SDS011;58938;49.868;8.646;2024-03-07T09:56:17;24.30;;;10.68;;
71207;SDS011;58938;49.868;8.646;2024-03-07T09:58:46;25.02;;;11.25;;
71207;SDS011;58938;49.868;8.646;2024-03-07T10:01:14;22.93;;;11.47;;
71207;SDS011;58938;49.868;8.646;2024-03-07T10:03:41;24.02;;;11.27;;
71207;SDS011;58938;49.868;8.646;2024-03-07T10:06:09;22.30;;;11.90;;
71207;SDS011;58938;49.868;8.646;2024-03-07T10:08:35;22.33;;;10.98;;
71207;SDS011;58938;49.868;8.646;2024-03-07T10:11:01;23.45;;;11.18;;
71207;SDS011;58938;49.868;8.646;2024-03-07T10:13:28;22.97;;;10.70;;
71207;SDS011;58938;49.868;8.646;2024-03-07T10:15:56;23.42;;;12.02;;
71207;SDS011;58938;49.868;8.646;2024-03-07T10:18:25;24.67;;;11.55;;
71207;SDS011;58938;49.868;8.646;2024-03-07T10:20:55;30.10;;;12.05;;
71207;SDS011;58938;49.868;8.646;2024-03-07T10:23:21;23.90;;;11.70;;
71207;SDS011;58938;49.868;8.646;2024-03-07T10:25:47;24.05;;;10.65;;
71207;SDS011;58938;49.868;8.646;2024-03-07T10:28:15;25.27;;;12.88;;
71207;SDS011;58938;49.868;8.646;2024-03-07T10:30:42;26.35;;;11.52;;
71207;SDS011;58938;49.868;8.646;2024-03-07T10:33:09;23.80;;;10.65;;
71207;SDS011;58938;49.868;8.646;2024-03-07T10:35:37;24.37;;;10.93;;
71207;SDS011;58938;49.868;8.646;2024-03-07T10:38:03;25.25;;;11.63;;
71207;SDS011;58938;49.868;8.646;2024-03-07T10:40:31;26.52;;;12.30;;
71207;SDS011;58938;49.868;8.646;2024-03-07T10:42:58;24.52;;;11.82;;
71207;SDS011;58938;49.868;8.646;2024-03-07T10:45:31;27.95;;;12.65;;
71207;SDS011;58938;49.868;8.646;2024-03-07T10:48:00;24.90;;;12.23;;
71207;SDS011;58938;49.868;8.646;2024-03-07T10:53:19;24.15;;;11.75;;
71207;SDS011;58938;49.868;8.646;2024-03-07T10:55:52;22.42;;;11.77;;
71207;SDS011;58938;49.868;8.646;2024-03-07T10:58:23;23.70;;;11.35;;
71207;SDS011;58938;49.868;8.646;2024-03-07T11:00:53;24.70;;;11.57;;
71207;SDS011;58938;49.868;8.646;2024-03-07T11:03:21;23.42;;;10.93;;
71207;SDS011;58938;49.868;8.646;2024-03-07T11:05:47;25.40;;;11.35;;
71207;SDS011;58938;49.868;8.646;2024-03-07T11:08:13;25.77;;;12.07;;
71207;SDS011;58938;49.868;8.646;2024-03-07T11:10:41;28.08;;;12.80;;
71207;SDS011;58938;49.868;8.646;2024-03-07T11:13:08;27.57;;;13.27;;
71207;SDS011;58938;49.868;8.646;2024-03-07T11:15:36;20.88;;;10.88;;
71207;SDS011;58938;49.868;8.646;2024-03-07T11:18:03;20.25;;;10.68;;
71207;SDS011;58938;49.868;8.646;2024-03-07T11:20:36;26.23;;;10.40;;
71207;SDS011;58938;49.868;8.646;2024-03-07T11:23:45;21.23;;;10.90;;
71207;SDS011;58938;49.868;8.646;2024-03-07T11:26:08;22.70;;;10.07;;
71207;SDS011;58938;49.868;8.646;2024-03-07T11:28:34;22.75;;;11.57;;
71207;SDS011;58938;49.868;8.646;2024-03-07T11:36:47;22.48;;;11.63;;
71207;SDS011;58938;49.868;8.646;2024-03-07T11:42:01;21.60;;;10.63;;
71207;SDS011;58938;49.868;8.646;2024-03-07T11:44:28;19.73;;;10.43;;
71207;SDS011;58938;49.868;8.646;2024-03-07T11:46:54;23.20;;;10.85;;
71207;SDS011;58938;49.868;8.646;2024-03-07T11:49:20;20.15;;;10.43;;
71207;SDS011;58938;49.868;8.646;2024-03-07T11:51:46;21.33;;;9.63;;
71207;SDS011;58938;49.868;8.646;2024-03-07T11:54:13;21.45;;;11.05;;
71207;SDS011;58938;49.868;8.646;2024-03-07T11:56:39;23.52;;;10.63;;
71207;SDS011;58938;49.868;8.646;2024-03-07T11:59:05;21.23;;;11.23;;
71207;SDS011;58938;49.868;8.646;2024-03-07T12:01:32;21.30;;;10.87;;
71207;SDS011;58938;49.868;8.646;2024-03-07T12:03:58;18.27;;;10.07;;
71207;SDS011;58938;49.868;8.646;2024-03-07T12:06:26;20.90;;;10.88;;
71207;SDS011;58938;49.868;8.646;2024-03-07T12:08:52;22.05;;;9.98;;
71207;SDS011;58938;49.868;8.646;2024-03-07T12:11:18;21.60;;;11.15;;
71207;SDS011;58938;49.868;8.646;2024-03-07T12:13:44;22.23;;;10.50;;
71207;SDS011;58938;49.868;8.646;2024-03-07T12:16:10;22.85;;;10.90;;
71207;SDS011;58938;49.868;8.646;2024-03-07T12:18:36;24.15;;;10.90;;
71207;SDS011;58938;49.868;8.646;2024-03-07T12:21:02;20.55;;;9.05;;
71207;SDS011;58938;49.868;8.646;2024-03-07T12:23:31;21.13;;;10.07;;
71207;SDS011;58938;49.868;8.646;2024-03-07T12:25:58;23.40;;;9.93;;
71207;SDS011;58938;49.868;8.646;2024-03-07T12:28:26;18.00;;;9.25;;
71207;SDS011;58938;49.868;8.646;2024-03-07T12:30:53;19.35;;;9.25;;
71207;SDS011;58938;49.868;8.646;2024-03-07T12:33:20;18.63;;;10.25;;
71207;SDS011;58938;49.868;8.646;2024-03-07T12:35:48;18.77;;;9.95;;
71207;SDS011;58938;49.868;8.646;2024-03-07T12:38:17;17.83;;;9.77;;
71207;SDS011;58938;49.868;8.646;2024-03-07T12:40:43;20.80;;;9.55;;
71207;SDS011;58938;49.868;8.646;2024-03-07T12:43:17;20.25;;;9.63;;
71207;SDS011;58938;49.868;8.646;2024-03-07T12:45:52;16.10;;;9.00;;
71207;SDS011;58938;49.868;8.646;2024-03-07T12:48:23;19.05;;;9.32;;
71207;SDS011;58938;49.868;8.646;2024-03-07T12:50:49;16.87;;;9.60;;
71207;SDS011;58938;49.868;8.646;2024-03-07T12:53:21;17.60;;;9.50;;
71207;SDS011;58938;49.868;8.646;2024-03-07T12:55:48;19.92;;;9.20;;
71207;SDS011;58938;49.868;8.646;2024-03-07T12:58:14;18.23;;;9.18;;
71207;SDS011;58938;49.868;8.646;2024-03-07T13:00:42;19.73;;;9.17;;
71207;SDS011;58938;49.868;8.646;2024-03-07T13:03:08;16.70;;;8.75;;
71207;SDS011;58938;49.868;8.646;2024-03-07T13:05:35;18.52;;;9.45;;
71207;SDS011;58938;49.868;8.646;2024-03-07T13:08:05;21.33;;;8.95;;
71207;SDS011;58938;49.868;8.646;2024-03-07T13:10:31;19.80;;;9.00;;
71207;SDS011;58938;49.868;8.646;2024-03-07T13:12:59;16.87;;;8.50;;
71207;SDS011;58938;49.868;8.646;2024-03-07T13:15:27;18.45;;;8.63;;
71207;SDS011;58938;49.868;8.646;2024-03-07T13:17:53;15.93;;;8.38;;
71207;SDS011;58938;49.868;8.646;2024-03-07T13:20:20;17.45;;;8.27;;
71207;SDS011;58938;49.868;8.646;2024-03-07T13:22:51;18.67;;;8.93;;
71207;SDS011;58938;49.868;8.646;2024-03-07T13:25:17;16.13;;;8.87;;
71207;SDS011;58938;49.868;8.646;2024-03-07T13:27:50;19.35;;;8.93;;
71207;SDS011;58938;49.868;8.646;2024-03-07T13:30:17;19.83;;;8.38;;
71207;SDS011;58938;49.868;8.646;2024-03-07T13:32:48;17.05;;;8.70;;
71207;SDS011;58938;49.868;8.646;2024-03-07T13:35:15;21.58;;;9.20;;
71207;SDS011;58938;49.868;8.646;2024-03-07T13:37:41;17.20;;;8.93;;
71207;SDS011;58938;49.868;8.646;2024-03-07T13:40:07;18.08;;;8.82;;
71207;SDS011;58938;49.868;8.646;2024-03-07T13:42:48;17.02;;;9.23;;
71207;SDS011;58938;49.868;8.646;2024-03-07T13:45:16;16.83;;;9.02;;
71207;SDS011;58938;49.868;8.646;2024-03-07T13:47:43;17.05;;;9.00;;
71207;SDS011;58938;49.868;8.646;2024-03-07T13:50:09;16.63;;;10.23;;
71207;SDS011;58938;49.868;8.646;2024-03-07T13:52:37;21.30;;;10.00;;
71207;SDS011;58938;49.868;8.646;2024-03-07T13:55:08;17.38;;;9.40;;
71207;SDS011;58938;49.868;8.646;2024-03-07T13:57:46;16.00;;;9.20;;
71207;SDS011;58938;49.868;8.646;2024-03-07T14:00:27;16.05;;;8.55;;
71207;SDS011;58938;49.868;8.646;2024-03-07T14:05:50;18.27;;;10.18;;
71207;SDS011;58938;49.868;8.646;2024-03-07T14:11:21;17.50;;;8.90;;
71207;SDS011;58938;49.868;8.646;2024-03-07T14:19:42;16.88;;;9.13;;
71207;SDS011;58938;49.868;8.646;2024-03-07T14:32:51;16.45;;;8.43;;
71207;SDS011;58938;49.868;8.646;2024-03-07T14:35:23;15.70;;;8.45;;
71207;SDS011;58938;49.868;8.646;2024-03-07T14:37:53;16.38;;;8.50;;
71207;SDS011;58938;49.868;8.646;2024-03-07T14:40:19;20.27;;;8.80;;
71207;SDS011;58938;49.868;8.646;2024-03-07T14:42:47;15.57;;;8.07;;
71207;SDS011;58938;49.868;8.646;2024-03-07T14:45:17;18.08;;;8.65;;
71207;SDS011;58938;49.868;8.646;2024-03-07T14:47:45;19.27;;;8.18;;
71207;SDS011;58938;49.868;8.646;2024-03-07T14:50:12;16.60;;;8.18;;
71207;SDS011;58938;49.868;8.646;2024-03-07T14:52:41;15.98;;;8.23;;
71207;SDS011;58938;49.868;8.646;2024-03-07T14:55:08;16.47;;;8.43;;
71207;SDS011;58938;49.868;8.646;2024-03-07T14:57:36;16.92;;;8.23;;